Time;durP1;ratioP1;P1;durP2;ratioP2;P2;SDS_P1;SDS_P2;PMS_P1;PMS_P2;Temp;Humidity;BMP_temperature;BMP_pressure;BME280_temperature;BME280_humidity;BME280_pressure;Samples;Min_cycle;Max_cycle;Signal;HPM_P1;HPM_P2
2023/08/19 00:02:19;;;;;;;6.93;4.32;;;;;;;24.91;75.31;100306.00;4860512;29;20957;-69
2023/08/19 00:04:47;;;;;;;8.90;3.95;;;;;;;24.96;75.09;100310.72;4861960;29;20302;-69
2023/08/19 00:07:15;;;;;;;8.65;3.92;;;;;;;24.99;74.93;100311.03;4861843;29;20211;-68
2023/08/19 00:09:43;;;;;;;8.43;3.67;;;;;;;25.02;74.77;100304.28;4860649;29;20243;-69
2023/08/19 00:12:10;;;;;;;7.40;3.95;;;;;;;25.01;74.97;100306.19;4864429;29;20298;-70
2023/08/19 00:14:39;;;;;;;7.03;3.75;;;;;;;25.02;74.97;100305.13;4863417;29;20333;-69
2023/08/19 00:17:07;;;;;;;7.03;4.00;;;;;;;25.01;75.09;100306.19;4861372;29;20219;-69
2023/08/19 00:19:35;;;;;;;10.05;4.10;;;;;;;25.01;75.08;100306.19;4863558;29;20262;-69
2023/08/19 00:22:03;;;;;;;7.30;4.00;;;;;;;25.02;75.19;100309.72;4862617;29;20211;-69
2023/08/19 00:24:31;;;;;;;5.32;3.88;;;;;;;25.00;75.46;100301.81;4862354;29;20210;-69
2023/08/19 00:27:00;;;;;;;10.27;3.90;;;;;;;24.96;75.51;100308.81;4861844;29;20266;-69
2023/08/19 00:29:28;;;;;;;7.30;3.67;;;;;;;24.96;75.78;100300.69;4861553;29;20713;-68
2023/08/19 00:31:57;;;;;;;7.03;3.70;;;;;;;24.95;75.45;100306.34;4863301;29;20214;-70
2023/08/19 00:34:25;;;;;;;9.15;4.15;;;;;;;24.93;75.56;100309.31;4860902;29;20307;-70
2023/08/19 00:36:54;;;;;;;10.65;4.20;;;;;;;24.88;76.25;100303.78;4862289;29;20214;-69
2023/08/19 00:39:23;;;;;;;10.32;4.45;;;;;;;24.85;75.98;100306.97;4859025;29;20698;-70
2023/08/19 00:41:53;;;;;;;5.78;3.72;;;;;;;24.84;76.02;100309.91;4860108;29;20973;-69
2023/08/19 00:44:21;;;;;;;9.15;3.67;;;;;;;24.83;76.09;100314.53;4860981;29;20247;-69
2023/08/19 00:46:48;;;;;;;5.72;3.50;;;;;;;24.84;76.15;100313.44;4862180;29;20210;-69
2023/08/19 00:49:20;;;;;;;7.22;4.45;;;;;;;24.84;76.28;100313.44;4860325;29;20638;-69
2023/08/19 00:51:49;;;;;;;8.70;3.90;;;;;;;24.84;76.16;100310.75;4860615;29;20649;-71
2023/08/19 00:54:16;;;;;;;8.70;3.90;;;;;;;24.86;76.24;100311.34;4861936;29;20372;-70
2023/08/19 00:56:44;;;;;;;7.57;3.80;;;;;;;24.88;75.93;100320.06;4857732;29;20276;-69
2023/08/19 00:59:12;;;;;;;9.40;4.60;;;;;;;24.86;75.81;100305.91;4851372;29;21256;-68
2023/08/19 01:01:40;;;;;;;9.38;4.68;;;;;;;24.87;75.87;100312.97;4855381;29;20333;-69
2023/08/19 01:04:08;;;;;;;11.27;4.78;;;;;;;24.86;76.00;100310.50;4852893;29;20230;-70
2023/08/19 01:06:46;;;;;;;10.10;4.20;;;;;;;24.85;75.81;100306.16;4851730;29;20640;-69
2023/08/19 01:09:24;;;;;;;8.05;3.95;;;;;;;24.84;75.78;100305.31;4854753;29;20223;-69
2023/08/19 01:12:05;;;;;;;6.68;3.88;;;;;;;24.85;75.81;100300.72;4855340;29;20226;-69
2023/08/19 01:14:44;;;;;;;7.22;4.40;;;;;;;24.85;75.61;100309.69;4853814;29;20210;-69
2023/08/19 01:17:15;;;;;;;9.45;3.97;;;;;;;24.84;75.93;100305.31;4849204;29;20203;-68
2023/08/19 01:19:44;;;;;;;11.75;4.80;;;;;;;24.84;75.99;100302.59;4852883;29;20207;-69
2023/08/19 01:22:18;;;;;;;11.05;4.43;;;;;;;24.86;75.68;100308.63;4851974;29;20211;-69
2023/08/19 01:24:48;;;;;;;8.75;4.55;;;;;;;24.85;75.72;100296.13;4852226;29;20399;-69
2023/08/19 01:27:26;;;;;;;6.95;4.15;;;;;;;24.83;76.12;100300.97;4852214;29;20330;-70
2023/08/19 01:29:55;;;;;;;8.23;4.40;;;;;;;24.78;76.32;100300.88;4854760;29;20758;-68
2023/08/19 01:32:24;;;;;;;7.60;3.97;;;;;;;24.79;76.12;100297.13;4853561;29;20347;-69
2023/08/19 01:34:53;;;;;;;8.40;4.38;;;;;;;24.80;76.07;100306.91;4854612;29;20321;-69
2023/08/19 01:37:28;;;;;;;8.65;4.63;;;;;;;24.81;75.81;100305.81;4852301;29;20215;-68
2023/08/19 01:40:00;;;;;;;8.32;4.22;;;;;;;24.79;75.80;100299.81;4854849;29;20214;-70
2023/08/19 01:42:29;;;;;;;12.88;4.45;;;;;;;24.76;76.77;100300.31;4851629;29;22104;-70
2023/08/19 01:44:57;;;;;;;8.57;4.53;;;;;;;24.71;77.21;100300.22;4851197;29;20644;-69
2023/08/19 01:47:25;;;;;;;8.27;4.03;;;;;;;24.72;76.37;100296.41;4853318;29;20306;-69
2023/08/19 01:49:53;;;;;;;8.10;4.00;;;;;;;24.74;76.02;100300.53;4853764;29;20345;-69
2023/08/19 01:52:21;;;;;;;9.38;4.82;;;;;;;24.69;76.34;100297.75;4852917;29;20234;-70
2023/08/19 01:54:49;;;;;;;13.65;4.45;;;;;;;24.68;76.22;100295.28;4852311;29;20210;-70
2023/08/19 01:57:18;;;;;;;8.10;4.20;;;;;;;24.71;75.98;100300.22;4854541;29;20221;-70
2023/08/19 01:59:46;;;;;;;11.02;4.32;;;;;;;24.73;75.54;100306.22;4853316;29;20331;-69
2023/08/19 02:02:13;;;;;;;6.38;3.67;;;;;;;24.75;75.09;100304.06;4850903;29;20232;-69
2023/08/19 02:04:41;;;;;;;6.93;4.32;;;;;;;24.77;75.07;100306.56;4852727;29;20215;-69
2023/08/19 02:07:09;;;;;;;10.52;4.60;;;;;;;24.74;74.80;100299.72;4850370;29;20247;-70
2023/08/19 02:09:36;;;;;;;10.27;3.90;;;;;;;24.71;74.90;100305.66;4851740;29;20262;-70
2023/08/19 02:12:05;;;;;;;8.80;4.25;;;;;;;24.71;74.72;100305.66;4854181;29;21049;-69
2023/08/19 02:14:34;;;;;;;8.75;4.45;;;;;;;24.71;74.59;100308.38;4851699;29;20301;-70
2023/08/19 02:17:02;;;;;;;10.38;4.25;;;;;;;24.73;74.49;100306.22;4851769;29;20219;-69
2023/08/19 02:19:29;;;;;;;11.05;3.60;;;;;;;24.71;74.58;100311.06;4852748;29;20219;-68
2023/08/19 02:21:57;;;;;;;6.57;3.85;;;;;;;24.69;74.57;100311.31;4852887;29;20221;-69
2023/08/19 02:24:26;;;;;;;7.50;4.10;;;;;;;24.68;74.71;100314.25;4852083;29;20902;-69
2023/08/19 02:26:53;;;;;;;8.25;4.18;;;;;;;24.66;74.68;100313.69;4854836;29;20222;-69
2023/08/19 02:29:21;;;;;;;6.47;3.50;;;;;;;24.65;75.01;100317.44;4851368;29;20249;-68
2023/08/19 02:31:50;;;;;;;11.45;4.63;;;;;;;24.65;74.79;100320.16;4853191;29;20305;-70
2023/08/19 02:34:18;;;;;;;7.18;3.95;;;;;;;24.64;74.78;100321.22;4850613;29;20215;-70
2023/08/19 02:36:46;;;;;;;7.45;4.15;;;;;;;24.64;74.72;100318.50;4853695;29;20346;-70
2023/08/19 02:39:14;;;;;;;9.18;4.15;;;;;;;24.61;74.97;100324.44;4850673;29;20221;-71
2023/08/19 02:41:42;;;;;;;7.13;3.63;;;;;;;24.56;75.38;100327.88;4850469;29;20234;-69
2023/08/19 02:44:09;;;;;;;8.73;4.18;;;;;;;24.54;75.44;100319.16;4852942;29;20249;-69
2023/08/19 02:46:37;;;;;;;9.07;4.28;;;;;;;24.54;75.36;100318.34;4852686;29;20330;-69
2023/08/19 02:49:06;;;;;;;7.35;3.85;;;;;;;24.54;75.37;100323.78;4851447;29;20213;-71
2023/08/19 02:51:34;;;;;;;8.50;4.35;;;;;;;24.53;75.25;100317.53;4854484;29;20277;-70
2023/08/19 02:54:02;;;;;;;8.65;4.20;;;;;;;24.53;75.20;100330.25;4852007;29;20214;-70
2023/08/19 02:56:30;;;;;;;6.75;4.03;;;;;;;24.51;75.10;100327.78;4851030;29;20305;-68
2023/08/19 02:58:58;;;;;;;7.10;3.97;;;;;;;24.52;74.92;100325.91;4851209;29;20219;-70
2023/08/19 03:01:26;;;;;;;11.10;4.55;;;;;;;24.47;75.52;100317.66;4851140;29;20325;-70
2023/08/19 03:03:53;;;;;;;7.80;4.22;;;;;;;24.38;76.16;100330.78;4852190;29;20224;-69
2023/08/19 03:06:22;;;;;;;8.60;4.28;;;;;;;24.30;76.78;100323.03;4856064;29;20206;-69
2023/08/19 03:08:50;;;;;;;8.27;4.53;;;;;;;24.25;76.20;100323.78;4857762;29;20652;-69
2023/08/19 03:11:18;;;;;;;8.10;4.10;;;;;;;24.25;76.33;100321.06;4853256;29;20289;-71
2023/08/19 03:13:45;;;;;;;11.40;4.38;;;;;;;24.28;76.27;100334.09;4854391;29;20285;-69
2023/08/19 03:16:14;;;;;;;8.20;4.53;;;;;;;24.25;76.48;100342.75;4853880;29;20219;-71
2023/08/19 03:18:42;;;;;;;11.88;4.22;;;;;;;24.27;76.32;100324.34;4859771;29;20214;-69
2023/08/19 03:21:10;;;;;;;6.50;4.30;;;;;;;24.23;77.35;100328.59;4861174;29;20250;-70
2023/08/19 03:23:39;;;;;;;5.35;3.72;;;;;;;24.14;77.69;100324.59;4861850;29;20207;-71
2023/08/19 03:26:07;;;;;;;6.63;4.50;;;;;;;24.14;77.74;100323.78;4861642;29;20229;-70
2023/08/19 03:28:34;;;;;;;6.85;4.55;;;;;;;24.16;77.60;100319.78;4860391;29;20223;-69
2023/08/19 03:31:08;;;;;;;8.10;4.22;;;;;;;24.21;77.33;100325.31;4863245;29;20322;-69
2023/08/19 03:33:36;;;;;;;9.00;4.38;;;;;;;24.20;77.19;100323.63;4863407;29;20257;-71
2023/08/19 03:36:04;;;;;;;6.85;4.32;;;;;;;24.22;76.98;100321.53;4864055;29;20214;-70
2023/08/19 03:38:32;;;;;;;7.05;4.22;;;;;;;24.21;77.20;100325.31;4863950;29;20305;-69
2023/08/19 03:41:01;;;;;;;6.60;4.30;;;;;;;24.17;77.68;100323.31;4858130;29;20657;-70
2023/08/19 03:43:29;;;;;;;10.05;4.63;;;;;;;24.11;77.81;100326.94;4861687;29;20290;-70
2023/08/19 03:45:57;;;;;;;11.13;4.60;;;;;;;24.08;77.71;100325.56;4864794;29;20629;-68
2023/08/19 03:48:24;;;;;;;8.70;4.78;;;;;;;24.07;77.86;100329.34;4861250;29;20211;-69
2023/08/19 03:50:52;;;;;;;6.97;4.93;;;;;;;24.03;77.94;100325.44;4860139;29;20344;-70
2023/08/19 03:53:19;;;;;;;11.48;4.63;;;;;;;23.99;78.14;100329.72;4859156;29;21273;-69
2023/08/19 03:55:49;;;;;;;9.90;4.82;;;;;;;23.99;77.83;100333.25;4866846;29;20677;-69
2023/08/19 03:58:18;;;;;;;8.32;4.95;;;;;;;23.97;78.22;100327.22;4861635;29;20223;-70
2023/08/19 04:00:47;;;;;;;13.00;4.63;;;;;;;23.86;79.17;100327.25;4860443;29;20278;-69
2023/08/19 04:03:15;;;;;;;8.25;4.18;;;;;;;23.84;78.89;100327.47;4860901;29;20211;-69
2023/08/19 04:05:44;;;;;;;6.65;4.28;;;;;;;23.86;78.66;100322.66;4863130;29;20628;-69
2023/08/19 04:08:11;;;;;;;10.05;4.57;;;;;;;23.88;78.46;100334.09;4861734;29;20219;-68
2023/08/19 04:10:39;;;;;;;9.18;4.65;;;;;;;23.91;78.36;100335.50;4860938;29;20234;-69
2023/08/19 04:13:07;;;;;;;10.45;5.00;;;;;;;23.93;77.90;100325.22;4861035;29;20329;-70
2023/08/19 04:15:36;;;;;;;6.95;4.40;;;;;;;23.93;78.27;100327.94;4859949;29;20207;-70
2023/08/19 04:18:04;;;;;;;6.53;4.45;;;;;;;23.88;78.64;100322.44;4860377;29;20206;-70
2023/08/19 04:20:32;;;;;;;6.28;4.07;;;;;;;23.87;78.65;100329.72;4861246;29;20210;-68
2023/08/19 04:23:00;;;;;;;7.82;4.55;;;;;;;23.84;78.86;100332.91;4862175;29;20406;-70
2023/08/19 04:25:27;;;;;;;7.22;4.35;;;;;;;23.81;79.81;100316.31;4861462;29;20242;-68
2023/08/19 04:27:55;;;;;;;11.40;5.13;;;;;;;23.72;80.23;100321.28;4863648;29;20271;-68
2023/08/19 04:30:23;;;;;;;10.18;4.85;;;;;;;23.65;80.56;100326.00;4861197;29;20207;-69
2023/08/19 04:32:52;;;;;;;9.90;5.50;;;;;;;23.62;80.94;100323.75;4862448;29;20237;-71
2023/08/19 04:35:27;;;;;;;11.23;5.00;;;;;;;23.60;80.90;100318.56;4861554;29;20210;-70
2023/08/19 04:37:55;;;;;;;9.50;4.55;;;;;;;23.57;81.55;100319.03;4860673;29;20222;-69
2023/08/19 04:40:23;;;;;;;8.20;4.95;;;;;;;23.58;80.92;100320.69;4861276;29;20305;-68
2023/08/19 04:42:50;;;;;;;8.90;5.35;;;;;;;23.66;80.04;100341.16;4861774;29;20347;-69
2023/08/19 04:45:18;;;;;;;10.93;5.07;;;;;;;23.73;79.40;100343.75;4861839;29;20214;-69
2023/08/19 04:47:46;;;;;;;10.15;4.53;;;;;;;23.78;78.98;100346.56;4861133;29;20388;-69
2023/08/19 04:50:16;;;;;;;9.23;5.00;;;;;;;23.83;78.68;100350.22;4860243;29;20218;-70
2023/08/19 04:52:43;;;;;;;10.65;4.70;;;;;;;23.88;78.47;100354.91;4861751;29;20214;-69
2023/08/19 04:55:11;;;;;;;7.20;4.35;;;;;;;23.93;78.56;100349.59;4860828;29;20700;-69
2023/08/19 04:57:39;;;;;;;13.27;4.90;;;;;;;23.91;78.69;100351.75;4861431;29;20230;-68
2023/08/19 05:00:12;;;;;;;15.00;5.15;;;;;;;23.92;78.86;100353.41;4862629;29;20223;-70
2023/08/19 05:02:40;;;;;;;8.35;5.13;;;;;;;23.94;78.61;100352.06;4860323;29;20592;-68
2023/08/19 05:05:08;;;;;;;11.82;5.13;;;;;;;23.95;78.62;100361.84;4860195;29;20211;-70
2023/08/19 05:07:37;;;;;;;10.27;4.75;;;;;;;23.90;80.10;100344.69;4862233;29;20215;-67
2023/08/19 05:10:06;;;;;;;11.23;4.97;;;;;;;23.87;80.09;100345.16;4862213;29;20293;-69
2023/08/19 05:12:33;;;;;;;10.93;5.10;;;;;;;23.78;81.17;100349.28;4860734;29;20325;-70
2023/08/19 05:15:01;;;;;;;9.38;4.90;;;;;;;23.80;80.45;100352.56;4859471;29;20209;-69
2023/08/19 05:17:29;;;;;;;7.78;5.50;;;;;;;23.83;80.28;100357.53;4858642;29;20216;-68
2023/08/19 05:19:57;;;;;;;8.15;4.65;;;;;;;23.88;80.42;100363.03;4860798;29;20961;-70
2023/08/19 05:22:24;;;;;;;14.45;6.32;;;;;;;23.92;80.29;100362.31;4861851;29;20309;-69
2023/08/19 05:24:54;;;;;;;6.93;4.85;;;;;;;23.96;79.37;100365.38;4859934;29;20218;-68
2023/08/19 05:27:21;;;;;;;11.38;5.53;;;;;;;24.00;79.19;100363.84;4860918;29;20409;-69
2023/08/19 05:29:49;;;;;;;10.38;5.07;;;;;;;24.05;78.88;100377.50;4861478;29;20306;-72
2023/08/19 05:32:17;;;;;;;9.10;4.85;;;;;;;24.07;78.88;100378.09;4860246;29;20238;-70
2023/08/19 05:34:44;;;;;;;9.02;4.82;;;;;;;24.09;78.94;100384.09;4860366;29;20306;-70
2023/08/19 05:37:12;;;;;;;11.85;4.85;;;;;;;24.10;79.09;100377.59;4860166;29;20618;-69
2023/08/19 05:39:40;;;;;;;10.95;4.90;;;;;;;24.11;80.23;100379.25;4862630;29;20242;-70
2023/08/19 05:42:11;;;;;;;7.35;5.30;;;;;;;24.07;79.81;100378.09;4861075;29;20235;-67
2023/08/19 05:44:39;;;;;;;10.02;5.22;;;;;;;24.09;80.18;100378.69;4861178;29;20218;-70
2023/08/19 05:47:08;;;;;;;7.40;4.97;;;;;;;24.12;79.66;100386.31;4859821;29;20242;-68
2023/08/19 05:49:36;;;;;;;8.32;4.63;;;;;;;24.15;80.69;100388.56;4859835;29;20248;-67
2023/08/19 05:52:05;;;;;;;7.55;4.60;;;;;;;24.18;78.86;100389.97;4859427;29;21031;-70
2023/08/19 05:54:32;;;;;;;9.10;4.47;;;;;;;24.23;77.56;100393.63;4862079;29;20214;-69
2023/08/19 05:57:00;;;;;;;9.35;4.97;;;;;;;24.30;78.85;100399.72;4860881;29;20217;-66
2023/08/19 05:59:29;;;;;;;8.63;4.45;;;;;;;24.35;77.67;100404.44;4864697;29;20209;-68
2023/08/19 06:01:57;;;;;;;8.20;4.70;;;;;;;24.41;76.99;100405.34;4861970;29;20218;-69
2023/08/19 06:04:25;;;;;;;9.18;4.95;;;;;;;24.47;75.14;100409.81;4859761;29;20381;-70
2023/08/19 06:06:53;;;;;;;6.07;3.88;;;;;;;24.55;74.19;100406.72;4859813;29;20214;-66
2023/08/19 06:09:22;;;;;;;7.93;3.58;;;;;;;24.69;69.46;100413.53;4859184;29;20239;-67
2023/08/19 06:11:51;;;;;;;6.57;3.90;;;;;;;24.67;70.13;100407.50;4858466;29;20782;-68
2023/08/19 06:14:19;;;;;;;8.98;3.33;;;;;;;24.75;70.15;100412.53;4860728;29;20766;-67
2023/08/19 06:16:48;;;;;;;7.93;3.50;;;;;;;24.75;70.16;100423.38;4861669;29;20334;-69
2023/08/19 06:19:16;;;;;;;7.50;3.65;;;;;;;24.76;69.88;100425.03;4858523;29;20309;-70
2023/08/19 06:21:44;;;;;;;9.82;3.80;;;;;;;24.81;69.37;100433.25;4860423;29;20325;-70
2023/08/19 06:24:11;;;;;;;8.90;3.78;;;;;;;24.83;68.80;100428.41;4859875;29;20297;-71
2023/08/19 06:26:39;;;;;;;6.43;3.25;;;;;;;24.83;69.60;100431.13;4861822;29;20305;-69
2023/08/19 06:29:07;;;;;;;8.50;3.50;;;;;;;24.90;69.41;100420.13;4860689;29;20250;-69
2023/08/19 06:31:35;;;;;;;8.52;3.45;;;;;;;24.93;68.43;100430.53;4860970;29;20299;-67
2023/08/19 06:34:05;;;;;;;4.97;3.38;;;;;;;24.95;68.98;100437.38;4860133;29;20209;-69
2023/08/19 06:36:36;;;;;;;6.63;3.70;;;;;;;25.02;68.60;100437.22;4860610;29;20301;-69
2023/08/19 06:39:08;;;;;;;6.53;3.88;;;;;;;25.15;67.81;100425.25;4861183;29;20270;-68
2023/08/19 06:41:39;;;;;;;6.85;3.40;;;;;;;25.19;67.56;100445.38;4867122;29;20341;-69
2023/08/19 06:44:09;;;;;;;5.65;3.78;;;;;;;25.30;66.91;100444.50;4867010;29;20229;-69
2023/08/19 06:46:38;;;;;;;6.70;3.17;;;;;;;25.33;66.76;100457.59;4867816;29;20274;-68
2023/08/19 06:49:09;;;;;;;8.50;3.63;;;;;;;25.29;67.08;100454.53;4864238;29;20214;-65
2023/08/19 06:51:37;;;;;;;9.25;3.70;;;;;;;25.26;67.58;100459.59;4866142;29;20615;-66
2023/08/19 06:54:06;;;;;;;6.72;3.42;;;;;;;25.20;67.83;100441.59;4867177;29;22451;-67
2023/08/19 06:56:38;;;;;;;9.15;4.05;;;;;;;25.20;68.30;100452.44;4869089;29;20210;-65
2023/08/19 06:59:13;;;;;;;9.35;3.75;;;;;;;25.22;68.31;100450.31;4866010;29;20341;-67
2023/08/19 07:01:44;;;;;;;7.32;3.80;;;;;;;25.26;68.58;100444.16;4866323;29;20206;-64
2023/08/19 07:04:14;;;;;;;6.82;3.33;;;;;;;25.32;68.89;100445.06;4865067;29;20646;-66
2023/08/19 07:06:43;;;;;;;13.32;4.15;;;;;;;25.36;69.75;100446.22;4863144;29;20333;-66
2023/08/19 07:09:12;;;;;;;10.23;3.80;;;;;;;25.44;69.38;100451.25;4863679;29;20238;-67
2023/08/19 07:11:44;;;;;;;7.40;4.22;;;;;;;25.52;69.18;100461.69;4866315;29;20667;-67
2023/08/19 07:14:12;;;;;;;6.63;4.03;;;;;;;25.63;69.51;100455.38;4864828;29;20209;-67
2023/08/19 07:16:40;;;;;;;7.22;4.10;;;;;;;25.68;68.70;100452.75;4865349;29;20241;-67
2023/08/19 07:19:14;;;;;;;5.65;3.65;;;;;;;25.73;69.54;100458.28;4865002;29;20214;-66
2023/08/19 07:21:46;;;;;;;10.88;4.50;;;;;;;25.78;67.33;100461.06;4866955;29;20221;-67
2023/08/19 07:24:14;;;;;;;12.02;4.70;;;;;;;25.75;67.80;100461.56;4867553;29;20298;-66
2023/08/19 07:26:44;;;;;;;8.57;4.22;;;;;;;25.79;67.36;100459.97;4869341;29;20211;-67
2023/08/19 07:29:13;;;;;;;10.25;4.28;;;;;;;25.81;67.06;100471.44;4867311;29;20259;-66
2023/08/19 07:31:42;;;;;;;6.80;3.58;;;;;;;25.81;67.09;100471.44;4867166;29;20222;-66
2023/08/19 07:34:10;;;;;;;6.82;3.72;;;;;;;25.74;68.22;100476.22;4867774;29;20329;-66
2023/08/19 07:36:39;;;;;;;10.65;4.00;;;;;;;25.77;68.96;100470.25;4866524;29;20241;-70
2023/08/19 07:39:07;;;;;;;8.13;4.10;;;;;;;25.92;67.73;100466.16;4864156;29;20711;-68
2023/08/19 07:41:35;;;;;;;11.30;3.85;;;;;;;26.01;68.15;100467.38;4865057;29;20852;-67
2023/08/19 07:44:02;;;;;;;7.00;3.50;;;;;;;26.17;67.46;100463.81;4865665;29;20303;-65
2023/08/19 07:46:32;;;;;;;6.60;3.40;;;;;;;26.28;67.03;100459.38;4867578;29;20752;-67
2023/08/19 07:49:00;;;;;;;8.77;4.30;;;;;;;26.36;66.93;100451.59;4863907;29;20431;-68
2023/08/19 07:51:27;;;;;;;9.68;3.88;;;;;;;26.43;66.98;100456.84;4863463;29;20301;-66
2023/08/19 07:53:57;;;;;;;12.55;4.75;;;;;;;26.56;66.43;100461.91;4863621;29;20333;-65
2023/08/19 07:56:24;;;;;;;8.05;3.70;;;;;;;26.72;65.62;100471.06;4863539;29;20835;-66
2023/08/19 07:58:52;;;;;;;8.70;4.22;;;;;;;26.84;65.76;100474.44;4862237;29;20218;-68
2023/08/19 08:01:20;;;;;;;8.15;3.80;;;;;;;27.03;63.64;100473.06;4862017;29;20705;-66
2023/08/19 08:03:48;;;;;;;8.10;3.50;;;;;;;27.14;63.33;100479.44;4861487;29;20894;-67
2023/08/19 08:06:16;;;;;;;9.95;3.67;;;;;;;27.28;63.28;100481.47;4860926;29;20217;-67
2023/08/19 08:08:44;;;;;;;9.30;4.00;;;;;;;27.51;61.28;100485.78;4861285;29;20263;-66
2023/08/19 08:11:13;;;;;;;7.25;4.15;;;;;;;27.62;61.64;100478.53;4860396;29;20591;-67
2023/08/19 08:13:41;;;;;;;8.63;4.00;;;;;;;27.80;61.62;100483.59;4860072;29;20697;-67
2023/08/19 08:16:09;;;;;;;9.30;4.40;;;;;;;27.90;61.35;100486.38;4861313;29;20210;-68
2023/08/19 08:18:38;;;;;;;6.70;4.00;;;;;;;28.08;59.92;100480.50;4861259;29;20222;-69
2023/08/19 08:21:06;;;;;;;11.65;3.95;;;;;;;27.99;61.26;100473.91;4860926;29;20222;-67
2023/08/19 08:23:36;;;;;;;6.93;3.88;;;;;;;27.98;61.09;100475.00;4856090;29;20214;-66
2023/08/19 08:26:05;;;;;;;7.40;4.55;;;;;;;28.13;59.78;100471.56;4860399;29;20345;-64
2023/08/19 08:28:34;;;;;;;9.35;3.75;;;;;;;28.19;60.62;100466.97;4859293;29;20583;-63
2023/08/19 08:31:02;;;;;;;9.35;4.00;;;;;;;28.27;59.87;100471.94;4858586;29;20689;-64
2023/08/19 08:33:29;;;;;;;10.45;4.13;;;;;;;28.37;58.84;100480.16;4859510;29;20237;-64
2023/08/19 08:35:58;;;;;;;6.93;4.05;;;;;;;28.34;58.36;100480.69;4860055;29;20798;-64
2023/08/19 08:38:26;;;;;;;6.88;3.78;;;;;;;28.31;59.00;100479.34;4860775;29;20223;-64
2023/08/19 08:40:54;;;;;;;9.35;4.53;;;;;;;28.25;59.50;100485.00;4856873;29;20238;-65
2023/08/19 08:43:23;;;;;;;6.60;3.60;;;;;;;28.30;58.73;100482.31;4857318;29;20557;-64
2023/08/19 08:45:54;;;;;;;7.82;3.83;;;;;;;28.28;58.92;100484.47;4857047;29;20218;-63
2023/08/19 08:48:22;;;;;;;10.35;4.78;;;;;;;28.26;58.60;100481.19;4859946;29;20215;-64
2023/08/19 08:50:52;;;;;;;9.43;4.13;;;;;;;28.29;57.73;100491.56;4858143;29;20247;-63
2023/08/19 08:53:20;;;;;;;7.55;4.50;;;;;;;28.17;59.05;100483.59;4857919;29;20237;-63
2023/08/19 08:55:54;;;;;;;12.77;5.03;;;;;;;28.14;59.06;100477.84;4860381;29;20281;-63
2023/08/19 08:58:22;;;;;;;18.98;5.50;;;;;;;28.04;59.04;100478.59;4858032;29;20222;-63
2023/08/19 09:00:55;;;;;;;10.30;5.07;;;;;;;28.16;58.38;100481.09;4859935;29;20233;-62
2023/08/19 09:03:26;;;;;;;11.27;5.13;;;;;;;28.09;59.76;100473.16;4862196;29;20752;-65
2023/08/19 09:05:58;;;;;;;9.27;5.40;;;;;;;28.01;59.73;100477.19;4860721;29;20213;-64
2023/08/19 09:08:31;;;;;;;8.00;5.38;;;;;;;28.01;60.12;100469.03;4857224;29;20309;-64
2023/08/19 09:11:01;;;;;;;8.85;4.90;;;;;;;28.00;59.93;100472.84;4859937;29;20699;-63
2023/08/19 09:13:31;;;;;;;10.32;5.10;;;;;;;28.02;60.17;100475.31;4856637;29;20300;-65
2023/08/19 09:16:01;;;;;;;12.38;5.55;;;;;;;28.01;60.29;100469.03;4858452;29;20845;-64
2023/08/19 09:18:28;;;;;;;11.40;5.63;;;;;;;28.11;60.13;100462.81;4857341;29;20885;-64
2023/08/19 09:20:57;;;;;;;9.88;5.68;;;;;;;28.07;60.52;100462.50;4861141;29;20225;-64
2023/08/19 09:23:30;;;;;;;10.75;5.70;;;;;;;28.14;60.07;100465.03;4861027;29;21055;-66
2023/08/19 09:25:58;;;;;;;8.50;5.60;;;;;;;28.21;60.38;100459.38;4859708;29;20243;-64
2023/08/19 09:28:26;;;;;;;12.00;5.70;;;;;;;28.21;61.00;100462.09;4857516;29;20278;-64
2023/08/19 09:30:54;;;;;;;11.00;5.63;;;;;;;28.36;60.14;100459.44;4858476;29;20457;-65
2023/08/19 09:33:24;;;;;;;10.80;5.60;;;;;;;28.29;60.87;100450.69;4862222;29;20246;-68
2023/08/19 09:36:00;;;;;;;10.27;5.70;;;;;;;28.27;60.99;100456.41;4860393;29;20211;-66
2023/08/19 09:38:28;;;;;;;14.02;6.00;;;;;;;28.26;61.58;100459.38;4858983;29;20214;-66
2023/08/19 09:41:02;;;;;;;8.32;5.30;;;;;;;28.32;61.22;100463.78;4856986;29;20590;-64
2023/08/19 09:43:30;;;;;;;12.45;5.90;;;;;;;28.30;61.72;100469.50;4857406;29;20587;-63
2023/08/19 09:45:58;;;;;;;14.18;5.60;;;;;;;28.37;61.39;100472.00;4861059;29;20361;-63
2023/08/19 09:48:27;;;;;;;6.85;5.55;;;;;;;28.39;61.33;100469.81;4859630;29;20493;-65
2023/08/19 09:50:55;;;;;;;8.50;6.10;;;;;;;28.39;61.63;100467.09;4859227;29;20996;-68
2023/08/19 09:53:23;;;;;;;7.47;5.10;;;;;;;28.41;61.13;100467.63;4859867;29;21013;-65
2023/08/19 09:55:52;;;;;;;10.38;5.95;;;;;;;28.35;61.67;100480.44;4859979;29;20241;-64
2023/08/19 09:58:20;;;;;;;11.60;5.78;;;;;;;28.35;62.11;100479.59;4861408;29;20306;-67
2023/08/19 10:00:47;;;;;;;10.82;5.47;;;;;;;28.34;61.92;100484.22;4861565;29;20276;-66
2023/08/19 10:03:16;;;;;;;9.20;5.65;;;;;;;28.40;62.08;100493.28;4861508;29;20213;-67
2023/08/19 10:05:52;;;;;;;11.10;6.20;;;;;;;28.35;62.04;100485.88;4864519;29;20237;-65
2023/08/19 10:08:21;;;;;;;8.93;5.53;;;;;;;28.37;62.37;100493.81;4858593;29;20221;-63
2023/08/19 10:10:51;;;;;;;12.82;5.63;;;;;;;28.48;62.38;100484.59;4859937;29;20565;-64
2023/08/19 10:13:22;;;;;;;14.05;5.70;;;;;;;28.68;61.29;100492.03;4858509;29;20297;-63
2023/08/19 10:15:51;;;;;;;14.63;6.05;;;;;;;28.80;60.16;100493.47;4857912;29;20290;-66
2023/08/19 10:18:24;;;;;;;13.95;5.80;;;;;;;28.88;60.47;100499.50;4855288;29;20222;-63
2023/08/19 10:20:56;;;;;;;7.32;5.40;;;;;;;28.83;61.05;100494.84;4859266;29;20607;-64
2023/08/19 10:23:26;;;;;;;10.73;6.13;;;;;;;28.75;61.64;100501.63;4859062;29;20789;-66
2023/08/19 10:25:55;;;;;;;14.98;6.10;;;;;;;28.80;61.61;100498.94;4859704;29;20225;-62
2023/08/19 10:28:27;;;;;;;10.52;5.95;;;;;;;28.79;61.96;100502.75;4859027;29;20719;-66
2023/08/19 10:31:06;;;;;;;11.35;6.18;;;;;;;28.75;62.43;100495.34;4859136;29;20314;-66
2023/08/19 10:33:39;;;;;;;13.25;6.32;;;;;;;28.70;63.01;100498.84;4859594;29;20209;-64
2023/08/19 10:36:09;;;;;;;10.40;6.43;;;;;;;28.71;62.44;100505.97;4857843;29;20217;-66
2023/08/19 10:38:45;;;;;;;17.27;6.32;;;;;;;28.75;62.55;100512.53;4858253;29;20331;-65
2023/08/19 10:41:23;;;;;;;13.57;6.15;;;;;;;28.75;63.14;100517.19;4858925;29;20221;-65
2023/08/19 10:43:59;;;;;;;13.45;6.32;;;;;;;28.71;63.06;100514.16;4859001;29;20300;-65
2023/08/19 10:46:34;;;;;;;8.20;5.72;;;;;;;28.74;63.42;100515.53;4858861;29;20558;-65
2023/08/19 10:49:03;;;;;;;12.13;6.32;;;;;;;28.74;63.68;100515.53;4859410;29;20209;-64
2023/08/19 10:51:51;;;;;;;20.10;8.05;;;;;;;28.71;63.94;100519.59;4859955;29;20219;-62
2023/08/19 10:54:29;;;;;;;13.57;7.00;;;;;;;28.70;63.81;100512.50;4860356;29;20218;-64
2023/08/19 10:57:11;;;;;;;13.43;7.50;;;;;;;28.70;63.91;100515.22;4858483;29;20214;-68
2023/08/19 10:59:41;;;;;;;12.77;6.82;;;;;;;28.73;64.20;100514.72;4856968;29;20215;-62
2023/08/19 11:02:11;;;;;;;14.07;7.00;;;;;;;28.75;64.11;100518.00;4859568;29;20831;-64
2023/08/19 11:04:40;;;;;;;11.05;6.38;;;;;;;28.87;63.76;100519.69;4857619;29;20250;-67
2023/08/19 11:07:10;;;;;;;12.70;7.18;;;;;;;28.97;62.86;100520.53;4859792;29;20218;-65
2023/08/19 11:09:40;;;;;;;13.88;7.50;;;;;;;29.02;62.24;100523.31;4859239;29;20748;-64
2023/08/19 11:12:09;;;;;;;11.02;6.90;;;;;;;28.99;62.45;100520.28;4859490;29;20214;-64
2023/08/19 11:14:37;;;;;;;14.48;6.57;;;;;;;29.04;62.03;100525.75;4862334;29;20234;-65
2023/08/19 11:17:05;;;;;;;13.20;7.50;;;;;;;29.05;61.50;100520.03;4859194;29;20259;-63
2023/08/19 11:19:33;;;;;;;11.55;7.22;;;;;;;29.07;62.00;100527.94;4858090;29;20207;-63
2023/08/19 11:22:01;;;;;;;13.57;6.65;;;;;;;29.15;61.87;100532.88;4861362;29;20214;-65
2023/08/19 11:24:34;;;;;;;11.48;6.57;;;;;;;29.26;61.24;100528.28;4861848;29;20291;-63
2023/08/19 11:27:02;;;;;;;15.65;6.75;;;;;;;29.36;61.43;100540.06;4863756;29;20665;-65
2023/08/19 11:29:30;;;;;;;14.65;7.15;;;;;;;29.40;61.43;100538.41;4862478;29;20439;-66
2023/08/19 11:32:00;;;;;;;13.48;7.57;;;;;;;29.51;61.29;100534.63;4861896;29;20253;-67